Time;durP1;ratioP1;P1;durP2;ratioP2;P2;SDS_P1;SDS_P2;PMS_P1;PMS_P2;Temp;Humidity;BMP_temperature;BMP_pressure;BME280_temperature;BME280_humidity;BME280_pressure;Samples;Min_cycle;Max_cycle;Signal;HPM_P1;HPM_P2
2023/09/07 00:00:40;;;;;;;1.63;1.23;;;25.80;96.70;;;;;;5104539;28;20546;-76
2023/09/07 00:03:08;;;;;;;2.47;1.20;;;25.70;96.70;;;;;;5105706;28;20108;-76
2023/09/07 00:05:36;;;;;;;1.30;1.15;;;25.70;96.70;;;;;;5102190;28;20043;-76
2023/09/07 00:08:05;;;;;;;1.60;1.27;;;25.80;96.70;;;;;;5105071;28;20927;-76
2023/09/07 00:10:36;;;;;;;1.55;1.20;;;25.70;96.70;;;;;;5136956;27;20052;-76
2023/09/07 00:13:05;;;;;;;1.48;1.20;;;25.70;96.70;;;;;;5098511;28;20509;-76
2023/09/07 00:15:37;;;;;;;1.45;1.00;;;25.60;96.70;;;;;;5098340;27;20123;-75
2023/09/07 00:18:06;;;;;;;3.92;1.20;;;25.60;96.70;;;;;;5084357;28;20043;-76
2023/09/07 00:20:34;;;;;;;1.40;1.00;;;25.60;96.70;;;;;;5103141;28;20472;-77
2023/09/07 00:23:03;;;;;;;1.20;1.10;;;25.60;96.70;;;;;;5105163;28;20039;-76
2023/09/07 00:25:31;;;;;;;2.13;1.55;;;25.50;96.70;;;;;;5083189;28;20032;-77
2023/09/07 00:27:59;;;;;;;1.50;1.20;;;25.60;96.70;;;;;;5099756;28;20067;-77
2023/09/07 00:30:29;;;;;;;1.60;1.27;;;25.50;96.70;;;;;;5103795;28;20242;-77
2023/09/07 00:32:57;;;;;;;1.92;1.10;;;25.50;96.70;;;;;;5101970;28;20075;-76
2023/09/07 00:35:25;;;;;;;2.28;1.20;;;25.50;96.70;;;;;;5094959;28;20063;-76
2023/09/07 00:37:54;;;;;;;2.28;1.27;;;25.50;96.70;;;;;;5103427;28;20101;-76
2023/09/07 00:40:22;;;;;;;1.35;1.25;;;25.50;96.70;;;;;;5103551;28;20381;-76
2023/09/07 00:42:50;;;;;;;3.97;1.50;;;25.50;96.70;;;;;;5086436;28;20048;-76
2023/09/07 00:45:18;;;;;;;1.30;1.20;;;25.50;96.70;;;;;;5103334;28;20067;-76
2023/09/07 00:47:48;;;;;;;2.17;1.10;;;25.50;96.70;;;;;;5102623;28;20595;-77
2023/09/07 00:50:16;;;;;;;1.65;1.50;;;25.50;96.70;;;;;;5086473;28;20158;-76
2023/09/07 00:52:45;;;;;;;2.70;1.40;;;25.50;96.70;;;;;;5104240;28;20433;-77
2023/09/07 00:55:14;;;;;;;4.10;1.52;;;25.40;96.70;;;;;;5100668;28;20050;-76
2023/09/07 00:57:42;;;;;;;1.55;1.33;;;25.10;96.70;;;;;;5086044;28;20044;-76
2023/09/07 01:00:12;;;;;;;1.10;1.00;;;24.70;96.70;;;;;;5104327;28;20116;-76
2023/09/07 01:02:42;;;;;;;2.45;1.65;;;24.50;96.70;;;;;;5093758;28;20109;-77
2023/09/07 01:05:12;;;;;;;2.92;1.50;;;24.50;96.70;;;;;;5103268;28;20063;-76
2023/09/07 01:07:46;;;;;;;1.50;1.40;;;24.40;96.70;;;;;;5102999;28;20047;-76
2023/09/07 01:10:15;;;;;;;3.17;1.50;;;24.50;96.70;;;;;;5103034;28;20104;-76
2023/09/07 01:12:43;;;;;;;1.30;1.20;;;24.40;96.70;;;;;;5101608;28;20039;-76
2023/09/07 01:15:11;;;;;;;3.25;1.50;;;24.50;96.70;;;;;;5085692;28;20601;-76
2023/09/07 01:17:40;;;;;;;1.98;1.33;;;24.70;96.70;;;;;;5086162;28;20499;-77
2023/09/07 01:20:12;;;;;;;2.70;1.40;;;24.60;96.70;;;;;;5102406;28;20075;-76
2023/09/07 01:22:43;;;;;;;2.88;1.58;;;24.60;96.70;;;;;;5086090;28;20059;-77
2023/09/07 01:25:11;;;;;;;1.75;1.25;;;24.50;96.70;;;;;;5086276;28;20094;-76
2023/09/07 01:27:40;;;;;;;4.18;1.67;;;24.50;96.70;;;;;;5085214;28;20092;-77
2023/09/07 01:30:11;;;;;;;2.08;1.50;;;24.60;96.70;;;;;;5085676;28;20044;-76
2023/09/07 01:32:39;;;;;;;3.17;1.73;;;24.50;96.70;;;;;;5103907;28;20123;-76
2023/09/07 01:35:11;;;;;;;2.83;1.35;;;24.40;96.70;;;;;;5084041;28;20903;-76
2023/09/07 01:37:39;;;;;;;1.98;1.48;;;24.50;96.70;;;;;;5082768;28;20044;-76
2023/09/07 01:40:10;;;;;;;1.95;1.60;;;24.40;96.70;;;;;;5083636;28;20239;-76
2023/09/07 01:42:38;;;;;;;3.17;1.50;;;24.30;96.70;;;;;;5066704;28;20058;-76
2023/09/07 01:45:07;;;;;;;2.55;1.58;;;24.20;96.70;;;;;;5083522;28;20571;-76
2023/09/07 01:47:35;;;;;;;1.85;1.63;;;24.30;96.70;;;;;;5066856;28;20039;-76
2023/09/07 01:50:04;;;;;;;2.47;1.50;;;24.30;96.70;;;;;;5066566;28;20040;-76
2023/09/07 01:52:33;;;;;;;3.17;1.80;;;24.20;96.70;;;;;;5066463;28;20066;-76
2023/09/07 01:55:01;;;;;;;1.98;1.60;;;24.30;96.70;;;;;;5084259;28;20110;-76
2023/09/07 01:57:31;;;;;;;1.70;1.42;;;24.20;96.70;;;;;;5082874;28;20047;-77
2023/09/07 02:00:00;;;;;;;1.70;1.45;;;24.30;96.70;;;;;;5066276;28;20048;-77
2023/09/07 02:02:28;;;;;;;3.28;2.10;;;24.10;96.70;;;;;;5066881;28;20513;-76
2023/09/07 02:04:56;;;;;;;5.07;1.48;;;23.90;96.70;;;;;;5082719;28;20157;-77
2023/09/07 02:07:24;;;;;;;4.85;1.88;;;23.90;96.70;;;;;;5084824;28;20642;-76
2023/09/07 02:09:53;;;;;;;3.50;1.60;;;24.10;96.70;;;;;;5083097;28;20063;-78
2023/09/07 02:12:21;;;;;;;2.63;1.50;;;24.00;96.70;;;;;;5084503;28;20044;-77
2023/09/07 02:14:59;;;;;;;3.80;1.60;;;23.90;96.70;;;;;;5082548;28;20052;-76
2023/09/07 02:17:27;;;;;;;2.63;1.77;;;23.80;96.70;;;;;;5084419;28;20397;-77
2023/09/07 02:19:56;;;;;;;2.25;1.30;;;23.70;96.70;;;;;;5082227;28;20042;-78
2023/09/07 02:22:24;;;;;;;3.80;1.65;;;23.70;96.70;;;;;;5066117;28;20175;-77
2023/09/07 02:24:52;;;;;;;2.03;1.40;;;23.80;96.70;;;;;;5083033;28;20082;-76
2023/09/07 02:27:21;;;;;;;3.33;1.77;;;23.70;96.70;;;;;;5084499;28;20055;-77
2023/09/07 02:29:49;;;;;;;2.83;1.38;;;23.80;96.70;;;;;;5082758;28;20456;-76
2023/09/07 02:32:19;;;;;;;2.58;1.33;;;23.70;96.70;;;;;;5082969;28;20048;-77
2023/09/07 02:34:48;;;;;;;3.20;1.40;;;23.70;96.70;;;;;;5082250;28;20066;-78
2023/09/07 02:37:16;;;;;;;3.20;1.35;;;23.60;96.70;;;;;;5083102;28;20048;-76
2023/09/07 02:39:46;;;;;;;3.67;1.50;;;23.60;96.70;;;;;;5084372;28;20044;-77
2023/09/07 02:42:14;;;;;;;1.90;1.80;;;23.50;96.70;;;;;;5082868;28;20066;-76
2023/09/07 02:44:42;;;;;;;2.20;1.75;;;23.30;96.70;;;;;;5066177;28;20048;-77
2023/09/07 02:47:10;;;;;;;4.15;1.80;;;23.30;96.70;;;;;;5082959;28;20464;-77
2023/09/07 02:49:42;;;;;;;4.72;1.60;;;23.30;96.70;;;;;;5084963;28;20048;-77
2023/09/07 02:52:10;;;;;;;2.00;1.60;;;23.40;96.70;;;;;;5084677;28;20064;-77
2023/09/07 02:54:38;;;;;;;1.77;1.60;;;23.40;96.70;;;;;;5066326;28;20050;-77
2023/09/07 02:57:06;;;;;;;2.63;1.42;;;23.30;96.70;;;;;;5082356;28;20044;-77
2023/09/07 02:59:34;;;;;;;2.00;1.65;;;23.40;96.70;;;;;;5065991;28;20044;-76
2023/09/07 03:02:03;;;;;;;2.20;1.40;;;23.30;96.70;;;;;;5068381;28;20113;-77
2023/09/07 03:04:31;;;;;;;2.58;1.50;;;23.00;96.70;;;;;;5069650;28;20566;-77
2023/09/07 03:07:02;;;;;;;2.05;1.80;;;22.70;96.70;;;;;;5086436;28;20167;-77
2023/09/07 03:09:31;;;;;;;4.07;1.60;;;22.70;96.70;;;;;;5069442;28;20779;-77
2023/09/07 03:11:59;;;;;;;4.13;1.70;;;22.70;96.70;;;;;;5069234;28;20044;-76
2023/09/07 03:14:28;;;;;;;2.80;1.67;;;22.80;96.70;;;;;;5069498;28;20428;-77
2023/09/07 03:16:57;;;;;;;2.75;1.60;;;22.90;96.70;;;;;;5069559;28;20044;-77
2023/09/07 03:19:26;;;;;;;2.60;1.65;;;23.00;96.70;;;;;;5069518;28;20113;-76
2023/09/07 03:21:54;;;;;;;1.85;1.40;;;22.90;96.70;;;;;;5086181;28;20127;-76
2023/09/07 03:24:24;;;;;;;3.22;1.85;;;22.90;96.70;;;;;;5085765;28;20048;-77
2023/09/07 03:26:52;;;;;;;3.45;1.60;;;22.90;96.70;;;;;;5085878;28;20524;-77
2023/09/07 03:29:20;;;;;;;3.00;2.00;;;22.90;96.70;;;;;;5086594;28;20040;-77
2023/09/07 03:31:50;;;;;;;3.58;2.00;;;22.80;96.70;;;;;;5069057;28;20460;-77
2023/09/07 03:34:19;;;;;;;2.88;1.67;;;22.80;96.70;;;;;;5068726;28;20060;-76
2023/09/07 03:36:47;;;;;;;3.15;2.10;;;22.80;96.70;;;;;;5085185;28;20052;-75
2023/09/07 03:39:17;;;;;;;4.30;1.90;;;22.80;96.70;;;;;;5085925;28;20152;-76
2023/09/07 03:41:47;;;;;;;2.20;1.85;;;22.80;96.70;;;;;;5086064;28;20059;-77
2023/09/07 03:44:15;;;;;;;3.50;1.88;;;22.80;96.70;;;;;;5085305;28;20040;-77
2023/09/07 03:46:46;;;;;;;1.77;1.67;;;22.90;96.70;;;;;;5085829;28;20101;-77
2023/09/07 03:49:14;;;;;;;2.92;2.13;;;22.90;96.70;;;;;;5086920;28;20131;-77
2023/09/07 03:51:42;;;;;;;3.63;1.80;;;22.90;96.70;;;;;;5068860;28;20055;-76
2023/09/07 03:54:10;;;;;;;2.88;1.67;;;22.90;96.70;;;;;;5068717;28;20052;-77
2023/09/07 03:56:39;;;;;;;4.25;1.67;;;22.90;96.70;;;;;;5085364;28;20047;-77
2023/09/07 03:59:11;;;;;;;2.20;1.88;;;22.70;96.70;;;;;;5068514;28;20043;-76
2023/09/07 04:01:39;;;;;;;3.35;1.55;;;22.80;96.70;;;;;;5085399;28;20051;-76
2023/09/07 04:04:07;;;;;;;3.00;1.48;;;22.80;96.70;;;;;;5086599;28;20051;-76
2023/09/07 04:06:36;;;;;;;1.67;1.55;;;23.00;96.70;;;;;;5085011;28;20052;-77
2023/09/07 04:09:05;;;;;;;2.17;1.98;;;22.90;96.70;;;;;;5085436;28;20062;-77
2023/09/07 04:11:33;;;;;;;3.45;2.08;;;22.70;96.70;;;;;;5084848;28;20051;-76
2023/09/07 04:14:01;;;;;;;2.97;1.83;;;22.70;96.70;;;;;;5067906;28;20055;-77
2023/09/07 04:16:31;;;;;;;5.35;2.35;;;22.50;96.70;;;;;;5084920;28;20597;-77
2023/09/07 04:18:59;;;;;;;5.07;1.85;;;22.50;96.70;;;;;;5077084;28;20524;-77
2023/09/07 04:21:28;;;;;;;2.35;1.80;;;22.50;96.70;;;;;;5085244;28;20064;-76
2023/09/07 04:23:56;;;;;;;3.83;2.13;;;22.40;96.70;;;;;;5084428;28;20473;-77
2023/09/07 04:26:25;;;;;;;2.50;1.38;;;22.40;96.70;;;;;;5084476;28;20043;-77
2023/09/07 04:28:53;;;;;;;4.05;1.67;;;22.30;96.70;;;;;;5067686;28;20048;-76
2023/09/07 04:31:24;;;;;;;2.50;1.80;;;22.30;96.70;;;;;;5084583;28;20044;-77
2023/09/07 04:33:54;;;;;;;3.65;1.83;;;22.30;96.70;;;;;;5067658;28;20060;-76
2023/09/07 04:36:22;;;;;;;3.35;1.60;;;22.40;96.70;;;;;;5084395;28;20055;-76
2023/09/07 04:38:50;;;;;;;2.42;1.98;;;22.40;96.70;;;;;;5084508;28;20529;-77
2023/09/07 04:41:19;;;;;;;2.95;1.77;;;22.40;96.70;;;;;;5084504;28;20036;-77
2023/09/07 04:43:47;;;;;;;3.47;1.90;;;22.30;96.70;;;;;;5085596;28;20040;-77
2023/09/07 04:46:15;;;;;;;4.50;2.30;;;22.30;96.70;;;;;;5068658;28;20533;-77
2023/09/07 04:48:45;;;;;;;3.67;2.00;;;22.40;96.70;;;;;;5084449;28;20044;-77
2023/09/07 04:51:15;;;;;;;2.70;2.08;;;22.30;96.70;;;;;;5084451;28;20051;-77
2023/09/07 04:53:44;;;;;;;4.40;2.28;;;22.30;96.70;;;;;;5067599;28;20043;-77
2023/09/07 04:56:13;;;;;;;2.80;2.20;;;22.30;96.70;;;;;;5085682;28;20409;-76
2023/09/07 04:58:41;;;;;;;5.78;2.35;;;22.40;96.70;;;;;;5084338;28;20052;-77
2023/09/07 05:01:11;;;;;;;3.45;2.03;;;22.40;96.70;;;;;;5067539;28;20048;-77
2023/09/07 05:03:41;;;;;;;4.63;2.17;;;22.30;96.70;;;;;;5084204;28;20085;-76
2023/09/07 05:06:11;;;;;;;3.75;2.22;;;22.30;96.70;;;;;;5083878;28;20105;-76
2023/09/07 05:08:40;;;;;;;3.25;1.80;;;22.30;96.70;;;;;;5080985;28;20106;-76
2023/09/07 05:11:09;;;;;;;4.03;2.13;;;22.20;96.70;;;;;;5085679;28;20055;-76
2023/09/07 05:13:37;;;;;;;4.35;2.13;;;22.20;96.70;;;;;;5084902;28;20711;-77
2023/09/07 05:16:05;;;;;;;9.05;2.42;;;22.20;96.70;;;;;;5083901;28;20759;-77
2023/09/07 05:18:35;;;;;;;4.45;2.20;;;22.30;96.70;;;;;;5083947;28;20070;-76
2023/09/07 05:21:12;;;;;;;5.20;2.55;;;22.20;96.70;;;;;;5066988;28;20052;-77
2023/09/07 05:23:43;;;;;;;6.60;2.67;;;22.20;96.70;;;;;;5075603;28;20105;-77
2023/09/07 05:26:11;;;;;;;5.53;2.35;;;22.20;96.70;;;;;;5082700;28;20560;-77
2023/09/07 05:28:43;;;;;;;8.35;2.50;;;22.30;96.70;;;;;;5082913;28;20044;-77
2023/09/07 05:31:13;;;;;;;4.90;2.60;;;22.30;96.70;;;;;;5083076;28;20048;-76
2023/09/07 05:33:42;;;;;;;5.20;2.30;;;22.30;96.70;;;;;;5082993;28;20074;-76
2023/09/07 05:36:09;;;;;;;7.07;2.80;;;22.40;96.70;;;;;;5066412;28;20059;-76
2023/09/07 05:38:37;;;;;;;5.68;2.75;;;22.50;96.70;;;;;;5066800;28;20048;-76
2023/09/07 05:41:08;;;;;;;6.20;3.00;;;22.60;96.70;;;;;;5083830;28;20406;-77
2023/09/07 05:43:36;;;;;;;6.82;2.88;;;22.70;96.70;;;;;;5083244;28;20074;-75
2023/09/07 05:46:04;;;;;;;7.28;3.08;;;22.70;96.70;;;;;;5083299;28;20040;-77
2023/09/07 05:48:52;;;;;;;7.72;2.72;;;22.70;96.70;;;;;;5079164;28;20144;-76
2023/09/07 05:51:20;;;;;;;8.98;2.78;;;22.70;96.70;;;;;;5083397;28;20040;-77
2023/09/07 05:53:48;;;;;;;5.05;2.92;;;22.70;96.70;;;;;;5066709;28;20101;-77
2023/09/07 05:56:18;;;;;;;6.68;2.92;;;22.90;96.70;;;;;;5083019;28;20055;-76
2023/09/07 05:58:49;;;;;;;5.32;2.90;;;22.90;96.70;;;;;;5075444;28;20146;-76
2023/09/07 06:01:17;;;;;;;7.57;3.28;;;22.90;96.70;;;;;;5063237;28;20839;-77
2023/09/07 06:03:45;;;;;;;7.80;3.08;;;22.90;96.70;;;;;;5079091;28;20142;-76
2023/09/07 06:06:13;;;;;;;7.20;3.33;;;23.00;96.70;;;;;;5084157;28;20062;-76
2023/09/07 06:08:41;;;;;;;11.70;3.45;;;23.00;96.70;;;;;;5083183;28;20044;-77
2023/09/07 06:11:09;;;;;;;9.15;4.60;;;23.10;96.70;;;;;;5083454;28;20040;-76
2023/09/07 06:13:39;;;;;;;8.50;4.15;;;23.20;96.70;;;;;;5082807;28;20468;-76
2023/09/07 06:16:07;;;;;;;14.05;5.28;;;23.20;96.70;;;;;;5083183;28;20076;-76
2023/09/07 06:18:35;;;;;;;10.60;5.28;;;23.20;96.70;;;;;;5083298;28;20044;-76
2023/09/07 06:21:05;;;;;;;10.63;4.80;;;23.20;96.70;;;;;;5082812;28;20055;-76
2023/09/07 06:23:33;;;;;;;12.98;4.75;;;23.30;96.70;;;;;;5082563;28;20655;-76
2023/09/07 06:26:02;;;;;;;8.25;4.65;;;23.40;96.70;;;;;;5083077;28;20501;-76
2023/09/07 06:28:31;;;;;;;12.13;4.50;;;23.50;96.70;;;;;;5065987;28;20079;-76
2023/09/07 06:31:01;;;;;;;12.05;4.18;;;23.30;96.70;;;;;;5083198;28;20261;-76
2023/09/07 06:33:29;;;;;;;11.98;4.43;;;23.40;96.70;;;;;;5085453;28;20470;-76
2023/09/07 06:36:02;;;;;;;12.93;4.75;;;23.50;96.70;;;;;;5071725;28;20097;-76
2023/09/07 06:38:31;;;;;;;10.65;4.00;;;23.50;96.70;;;;;;5090499;28;20390;-76
2023/09/07 06:41:00;;;;;;;11.27;4.45;;;23.60;96.70;;;;;;5090430;28;20056;-75
2023/09/07 06:43:30;;;;;;;11.40;4.30;;;23.70;96.70;;;;;;5090199;28;20428;-77
2023/09/07 06:46:07;;;;;;;11.27;4.28;;;23.70;96.70;;;;;;5073848;28;20044;-76
2023/09/07 06:48:35;;;;;;;;;;;23.80;96.70;;;;;;5090506;28;20062;-76
2023/09/07 06:51:06;;;;;;;8.23;3.40;;;24.00;96.70;;;;;;5108407;28;19962;-76
2023/09/07 06:53:35;;;;;;;11.75;3.88;;;24.10;96.70;;;;;;5090181;28;20151;-75
2023/09/07 06:56:23;;;;;;;8.27;3.63;;;24.20;96.70;;;;;;5095932;28;20051;-75
2023/09/07 06:58:51;;;;;;;11.10;3.88;;;24.30;96.70;;;;;;5081680;28;20047;-75
2023/09/07 07:01:21;;;;;;;8.30;3.47;;;24.40;96.70;;;;;;5090020;28;20043;-76
2023/09/07 07:03:50;;;;;;;10.13;4.07;;;24.50;96.70;;;;;;5073353;28;20500;-76
2023/09/07 07:06:19;;;;;;;9.48;3.08;;;24.60;96.70;;;;;;5107951;28;20489;-76
2023/09/07 07:08:49;;;;;;;10.10;3.95;;;24.70;96.70;;;;;;5103996;28;20093;-76
2023/09/07 07:11:17;;;;;;;9.63;3.70;;;24.80;96.70;;;;;;5099455;28;20051;-76
2023/09/07 07:13:45;;;;;;;11.50;4.18;;;24.80;96.70;;;;;;5089351;28;20071;-78
2023/09/07 07:16:13;;;;;;;19.08;5.32;;;24.90;96.70;;;;;;5073432;28;20378;-77
2023/09/07 07:18:43;;;;;;;12.88;3.83;;;25.00;96.70;;;;;;5072714;28;20044;-76
2023/09/07 07:21:12;;;;;;;10.07;3.20;;;25.10;96.70;;;;;;5089957;28;20501;-76
2023/09/07 07:23:40;;;;;;;12.98;3.30;;;25.20;96.70;;;;;;5087418;28;20044;-77
2023/09/07 07:26:09;;;;;;;11.85;3.30;;;25.30;96.70;;;;;;5098020;28;20097;-77
2023/09/07 07:28:38;;;;;;;13.70;3.10;;;25.40;96.70;;;;;;5089531;28;20100;-77
2023/09/07 07:31:09;;;;;;;6.65;2.88;;;25.50;96.70;;;;;;5107959;28;20479;-76
2023/09/07 07:33:39;;;;;;;9.27;2.92;;;25.60;96.70;;;;;;5089275;28;20054;-77
2023/09/07 07:36:08;;;;;;;6.97;2.67;;;25.70;96.70;;;;;;5081591;28;20063;-77
2023/09/07 07:38:36;;;;;;;3.65;1.98;;;25.80;96.70;;;;;;5089371;28;21143;-77
2023/09/07 07:41:05;;;;;;;7.53;2.20;;;25.90;96.70;;;;;;5098543;28;20056;-77
2023/09/07 07:43:35;;;;;;;1.73;1.63;;;26.00;96.70;;;;;;5093013;28;20071;-77
2023/09/07 07:46:04;;;;;;;2.92;1.42;;;26.20;96.70;;;;;;5089227;28;20067;-77
2023/09/07 07:48:35;;;;;;;2.75;1.38;;;26.30;96.70;;;;;;5088130;28;20088;-77
2023/09/07 07:51:05;;;;;;;2.15;1.60;;;26.40;96.70;;;;;;5097452;28;20470;-76
2023/09/07 07:53:39;;;;;;;3.00;1.50;;;26.40;96.70;;;;;;5090025;28;20451;-76
2023/09/07 07:56:15;;;;;;;3.63;1.55;;;26.50;96.70;;;;;;5089072;28;20054;-77
2023/09/07 07:58:47;;;;;;;2.17;1.40;;;26.70;96.70;;;;;;5071262;28;20073;-76
2023/09/07 08:01:16;;;;;;;2.45;1.38;;;26.80;96.70;;;;;;5096957;28;20051;-77
2023/09/07 08:03:45;;;;;;;4.68;1.48;;;26.80;96.70;;;;;;5088886;28;20067;-77
2023/09/07 08:06:13;;;;;;;2.95;1.35;;;26.90;96.70;;;;;;5106793;28;20055;-77
2023/09/07 08:08:43;;;;;;;1.90;1.30;;;26.90;96.70;;;;;;5088634;28;20066;-77
2023/09/07 08:11:12;;;;;;;4.47;1.70;;;27.00;96.70;;;;;;5071829;28;20054;-77
2023/09/07 08:13:40;;;;;;;3.47;1.50;;;27.10;96.70;;;;;;5079748;28;20416;-77
2023/09/07 08:16:10;;;;;;;1.95;1.70;;;27.10;96.70;;;;;;5089037;28;20048;-77
2023/09/07 08:18:41;;;;;;;1.75;1.40;;;27.20;96.70;;;;;;5099344;28;20052;-78
2023/09/07 08:21:14;;;;;;;2.75;1.60;;;27.30;96.70;;;;;;5090991;28;20568;-77
2023/09/07 08:23:44;;;;;;;2.40;1.33;;;27.30;96.70;;;;;;5088165;28;20047;-77
2023/09/07 08:26:14;;;;;;;2.85;1.15;;;27.40;96.70;;;;;;5088498;28;20134;-77
2023/09/07 08:28:46;;;;;;;1.63;1.17;;;27.40;96.70;;;;;;5088314;28;20081;-77
2023/09/07 08:31:20;;;;;;;4.07;1.55;;;27.40;96.70;;;;;;5106892;28;20427;-76
2023/09/07 08:33:54;;;;;;;1.83;1.30;;;27.40;96.70;;;;;;5106180;28;20055;-78
2023/09/07 08:36:23;;;;;;;3.03;1.80;;;27.50;96.70;;;;;;5084411;28;20532;-77
2023/09/07 08:38:53;;;;;;;2.63;1.33;;;27.50;96.70;;;;;;5087906;28;20496;-77
2023/09/07 08:41:22;;;;;;;2.45;1.67;;;27.50;96.70;;;;;;5088622;28;20055;-77
2023/09/07 08:43:54;;;;;;;3.13;1.50;;;27.60;96.70;;;;;;5106036;28;20047;-76
2023/09/07 08:46:23;;;;;;;2.15;1.48;;;27.70;96.70;;;;;;5105911;28;20050;-77
2023/09/07 08:48:52;;;;;;;1.42;1.33;;;27.80;96.70;;;;;;5080077;28;20065;-77
2023/09/07 08:51:22;;;;;;;2.03;1.45;;;27.80;96.70;;;;;;5105846;28;20048;-78
2023/09/07 08:53:52;;;;;;;1.92;1.35;;;27.80;96.70;;;;;;5083281;28;20089;-77
2023/09/07 08:56:21;;;;;;;3.10;1.50;;;27.80;96.70;;;;;;5085393;28;20044;-78
2023/09/07 08:58:49;;;;;;;3.47;1.35;;;27.90;96.70;;;;;;5073263;28;20071;-77
2023/09/07 09:01:17;;;;;;;2.97;1.90;;;28.00;96.70;;;;;;5087785;28;20063;-76
2023/09/07 09:03:46;;;;;;;3.00;1.50;;;28.00;96.70;;;;;;5105977;28;20050;-77
2023/09/07 09:06:16;;;;;;;2.60;1.20;;;28.00;96.70;;;;;;5106219;28;20389;-78
2023/09/07 09:08:45;;;;;;;1.88;1.38;;;28.00;96.70;;;;;;5105901;28;20050;-77
2023/09/07 09:11:16;;;;;;;2.78;1.23;;;28.20;96.70;;;;;;5080266;28;20036;-76
2023/09/07 09:13:44;;;;;;;5.32;1.80;;;28.40;96.70;;;;;;5079042;28;20489;-77
2023/09/07 09:16:15;;;;;;;4.20;1.52;;;28.50;96.70;;;;;;5105888;28;20108;-77
2023/09/07 09:18:48;;;;;;;3.03;1.65;;;28.50;96.70;;;;;;5105740;28;20675;-77
2023/09/07 09:21:16;;;;;;;5.47;2.03;;;28.50;96.70;;;;;;5087721;28;20047;-78
2023/09/07 09:23:44;;;;;;;1.95;1.50;;;28.60;96.70;;;;;;5087568;28;20416;-77
2023/09/07 09:26:14;;;;;;;2.53;1.23;;;28.80;96.70;;;;;;5078801;28;20455;-77
2023/09/07 09:28:45;;;;;;;1.30;1.20;;;28.70;96.70;;;;;;5105686;28;20047;-78
2023/09/07 09:31:14;;;;;;;2.72;1.80;;;28.80;96.70;;;;;;5105776;28;20043;-78
2023/09/07 09:33:47;;;;;;;2.03;1.42;;;28.90;96.70;;;;;;5105085;28;20081;-76
2023/09/07 09:36:15;;;;;;;2.33;1.38;;;29.00;96.70;;;;;;5086864;28;20044;-77
2023/09/07 09:38:49;;;;;;;4.07;1.45;;;28.90;96.70;;;;;;5070166;28;20527;-78
2023/09/07 09:41:20;;;;;;;2.92;1.50;;;28.90;96.70;;;;;;5087784;28;20130;-77
2023/09/07 09:43:50;;;;;;;3.30;1.73;;;29.10;96.70;;;;;;5105238;28;20039;-77
2023/09/07 09:46:19;;;;;;;1.95;1.38;;;29.00;96.70;;;;;;5105271;28;20047;-77
2023/09/07 09:48:48;;;;;;;2.53;1.42;;;29.10;96.70;;;;;;5070433;28;20074;-77
2023/09/07 09:51:17;;;;;;;2.33;1.65;;;29.10;96.70;;;;;;5069797;28;20146;-76
2023/09/07 09:53:45;;;;;;;2.05;1.58;;;29.20;96.70;;;;;;5087066;28;20044;-77
2023/09/07 09:56:13;;;;;;;1.90;1.30;;;29.30;96.70;;;;;;5070324;28;20055;-77
2023/09/07 09:58:42;;;;;;;3.88;1.63;;;29.30;96.70;;;;;;5104947;28;20059;-77
2023/09/07 10:01:13;;;;;;;4.97;1.40;;;29.60;96.70;;;;;;5086838;28;20082;-77
2023/09/07 10:03:48;;;;;;;1.48;1.33;;;29.60;96.70;;;;;;5079000;28;20047;-77
2023/09/07 10:06:20;;;;;;;2.33;1.65;;;29.50;96.70;;;;;;5087369;28;20044;-77
2023/09/07 10:08:55;;;;;;;1.65;1.45;;;29.50;96.70;;;;;;5087476;28;20044;-77
2023/09/07 10:11:31;;;;;;;3.10;1.38;;;29.50;96.70;;;;;;5089645;28;20050;-78
2023/09/07 10:14:03;;;;;;;;;;;29.70;96.70;;;;;;5084299;28;20055;-77
2023/09/07 10:16:43;;;;;;;1.40;1.20;;;30.00;96.70;;;;;;5109473;28;19931;-78
2023/09/07 10:19:15;;;;;;;2.60;1.20;;;30.20;96.70;;;;;;5074279;28;20051;-77
2023/09/07 10:21:44;;;;;;;2.67;1.40;;;30.20;96.70;;;;;;5090176;28;20062;-78
2023/09/07 10:24:12;;;;;;;3.10;1.48;;;30.10;96.70;;;;;;5109205;28;20074;-77
2023/09/07 10:26:40;;;;;;;2.72;1.38;;;30.10;96.70;;;;;;5091066;28;20044;-77
2023/09/07 10:29:11;;;;;;;4.03;1.67;;;30.10;96.70;;;;;;5090430;28;20039;-77
2023/09/07 10:31:39;;;;;;;2.65;1.45;;;30.00;96.70;;;;;;5091078;28;20122;-77
2023/09/07 10:34:22;;;;;;;2.85;1.45;;;30.20;96.70;;;;;;5067974;28;20064;-77
2023/09/07 10:36:56;;;;;;;3.50;1.50;;;30.40;96.70;;;;;;5108672;28;20040;-78
2023/09/07 10:39:28;;;;;;;3.63;1.60;;;30.70;96.70;;;;;;5091206;28;20218;-78
2023/09/07 10:41:56;;;;;;;3.45;1.67;;;30.60;96.70;;;;;;5090381;28;20050;-77
2023/09/07 10:44:28;;;;;;;1.80;1.20;;;30.50;96.70;;;;;;5108797;28;20078;-78
2023/09/07 10:46:57;;;;;;;3.85;1.55;;;30.40;96.70;;;;;;5102875;28;20047;-77
2023/09/07 10:49:25;;;;;;;6.70;2.20;;;30.40;96.70;;;;;;5090368;28;20039;-77
2023/09/07 10:51:53;;;;;;;1.38;1.10;;;30.50;96.70;;;;;;5109018;28;20050;-77
2023/09/07 10:54:23;;;;;;;3.13;1.45;;;30.50;96.70;;;;;;5090507;28;20062;-77
2023/09/07 10:56:51;;;;;;;2.13;1.50;;;30.60;96.70;;;;;;5098627;28;20086;-77
2023/09/07 10:59:19;;;;;;;1.65;1.27;;;30.60;96.70;;;;;;5108519;28;20576;-78
2023/09/07 11:01:49;;;;;;;1.92;1.50;;;30.70;96.70;;;;;;5108622;28;20048;-78
2023/09/07 11:04:17;;;;;;;2.58;1.33;;;30.60;96.70;;;;;;5090398;28;20047;-77
2023/09/07 11:06:46;;;;;;;1.15;1.02;;;30.60;96.70;;;;;;5109213;27;20047;-77
2023/09/07 11:09:16;;;;;;;2.35;1.40;;;30.60;96.70;;;;;;5072891;28;20378;-77
2023/09/07 11:11:47;;;;;;;2.10;1.50;;;30.90;96.70;;;;;;5108580;28;20436;-77
2023/09/07 11:14:15;;;;;;;2.97;1.60;;;31.00;96.70;;;;;;5107533;28;20047;-77
2023/09/07 11:16:43;;;;;;;1.88;1.30;;;31.30;96.70;;;;;;5108021;28;20082;-77
2023/09/07 11:19:15;;;;;;;1.90;1.65;;;31.40;96.70;;;;;;5108317;28;20113;-77
2023/09/07 11:21:43;;;;;;;1.90;1.50;;;31.40;96.70;;;;;;5106394;28;20044;-77
2023/09/07 11:24:11;;;;;;;2.40;1.70;;;31.20;96.70;;;;;;5072968;28;20052;-77
2023/09/07 11:26:43;;;;;;;2.45;1.52;;;31.30;96.70;;;;;;5107947;28;20532;-79
2023/09/07 11:29:15;;;;;;;2.20;1.52;;;31.40;96.70;;;;;;5107575;28;20532;-78
2023/09/07 11:31:43;;;;;;;2.78;1.50;;;31.50;96.70;;;;;;5107822;28;20046;-77
2023/09/07 11:34:13;;;;;;;1.45;1.30;;;31.60;96.70;;;;;;5085153;28;20048;-78
2023/09/07 11:36:54;;;;;;;3.67;1.42;;;31.60;96.70;;;;;;5080543;28;20048;-78
2023/09/07 11:39:22;;;;;;;2.42;1.60;;;31.50;96.70;;;;;;5068994;28;20091;-78
2023/09/07 11:41:50;;;;;;;1.83;1.40;;;31.70;96.70;;;;;;5069104;28;20119;-78
2023/09/07 11:44:18;;;;;;;4.65;1.40;;;31.80;96.70;;;;;;5086626;28;20551;-77
2023/09/07 11:46:46;;;;;;;5.07;1.50;;;31.90;96.70;;;;;;5079136;28;20067;-76
2023/09/07 11:49:19;;;;;;;2.63;1.80;;;31.50;96.70;;;;;;5085626;28;20413;-77
2023/09/07 11:51:48;;;;;;;2.25;1.45;;;31.60;96.70;;;;;;5085616;28;20040;-77
2023/09/07 11:54:17;;;;;;;2.70;1.65;;;31.70;96.70;;;;;;5087342;28;20055;-77
2023/09/07 11:56:46;;;;;;;3.83;1.95;;;31.70;96.70;;;;;;5086393;28;20254;-78
2023/09/07 11:59:13;;;;;;;4.05;1.67;;;31.80;96.70;;;;;;5086865;28;20048;-77
2023/09/07 12:01:41;;;;;;;1.98;1.63;;;31.80;96.70;;;;;;5086809;28;20040;-77
2023/09/07 12:04:10;;;;;;;4.05;1.63;;;31.90;96.70;;;;;;5085500;28;20090;-78
2023/09/07 12:06:40;;;;;;;3.03;1.40;;;31.90;96.70;;;;;;5068544;28;20056;-78
2023/09/07 12:09:09;;;;;;;2.92;1.75;;;32.10;96.70;;;;;;5085021;28;20040;-77
2023/09/07 12:11:38;;;;;;;2.42;1.50;;;32.30;96.70;;;;;;5085430;28;20101;-78
2023/09/07 12:14:06;;;;;;;2.97;1.67;;;32.30;96.70;;;;;;5067927;28;20039;-77
2023/09/07 12:16:34;;;;;;;1.70;1.50;;;32.40;96.70;;;;;;5084714;28;20052;-77
2023/09/07 12:19:02;;;;;;;2.47;1.70;;;32.40;96.70;;;;;;5068494;28;20040;-77
2023/09/07 12:21:30;;;;;;;4.82;1.83;;;32.40;96.70;;;;;;5086626;28;20413;-78
2023/09/07 12:23:59;;;;;;;2.90;1.63;;;32.20;96.70;;;;;;5084587;28;20046;-77
2023/09/07 12:26:27;;;;;;;2.22;1.70;;;31.90;96.70;;;;;;5077918;28;20051;-77
2023/09/07 12:28:55;;;;;;;2.40;1.95;;;32.00;96.70;;;;;;5084878;28;20090;-77
2023/09/07 12:31:23;;;;;;;1.95;1.75;;;32.20;96.70;;;;;;5084765;28;20127;-77
2023/09/07 12:33:51;;;;;;;3.28;2.00;;;32.40;96.70;;;;;;5091618;28;20052;-77
2023/09/07 12:36:21;;;;;;;2.97;1.95;;;32.40;96.70;;;;;;5106092;28;20054;-78
2023/09/07 12:38:49;;;;;;;3.30;1.70;;;32.50;96.70;;;;;;5106305;28;20505;-78
2023/09/07 12:41:19;;;;;;;2.88;1.70;;;32.60;96.70;;;;;;5088637;28;20044;-80
2023/09/07 12:43:47;;;;;;;2.63;1.60;;;32.50;96.70;;;;;;5071155;28;20051;-76
2023/09/07 12:46:14;;;;;;;3.78;2.15;;;32.20;96.70;;;;;;5088270;28;20031;-78
2023/09/07 12:48:43;;;;;;;3.08;2.05;;;32.10;96.70;;;;;;5071305;28;20052;-78
2023/09/07 12:51:11;;;;;;;3.10;1.85;;;32.10;96.70;;;;;;5101922;28;20050;-77
2023/09/07 12:53:39;;;;;;;6.43;2.03;;;32.20;96.70;;;;;;5071309;28;20055;-77
2023/09/07 12:56:07;;;;;;;3.90;1.95;;;32.20;96.70;;;;;;5106356;28;20050;-78